createdAt,value
2019-04-14T00:04:03.050Z,78.64
2019-04-14T00:09:16.113Z,78.45
2019-04-14T00:14:19.239Z,79.21
2019-04-14T00:19:21.927Z,79.32
2019-04-14T00:24:24.981Z,79.55
2019-04-14T00:29:28.443Z,78.84
2019-04-14T00:34:59.550Z,79.38
2019-04-14T00:40:21.308Z,80.11
2019-04-14T00:45:43.482Z,81.11
2019-04-14T00:50:38.993Z,81.19
2019-04-14T00:55:42.212Z,80.83
2019-04-14T01:00:45.205Z,80.83
2019-04-14T01:05:48.208Z,79.98
2019-04-14T01:10:51.954Z,79.19
2019-04-14T01:16:00.571Z,79.82
2019-04-14T01:21:00.294Z,78.70
2019-04-14T01:26:03.164Z,77.99
2019-04-14T01:31:05.858Z,78.07
2019-04-14T01:36:08.550Z,78.62
2019-04-14T01:41:11.259Z,78.21
2019-04-14T01:46:19.675Z,77.76
2019-04-14T01:51:35.269Z,78.06
2019-04-14T01:56:47.204Z,77.90
2019-04-14T02:01:52.071Z,77.96
2019-04-14T02:06:55.243Z,78.17
2019-04-14T02:11:58.095Z,78.40
2019-04-14T02:17:02.577Z,78.44
2019-04-14T02:22:05.370Z,78.52
2019-04-14T02:27:08.072Z,78.77
2019-04-14T02:37:43.335Z,78.54
2019-04-14T02:42:46.602Z,78.55
2019-04-14T02:53:01.566Z,78.22
2019-04-14T02:58:01.203Z,78.27
2019-04-14T03:03:12.890Z,78.79
2019-04-14T03:08:08.303Z,79.05
2019-04-14T03:13:30.771Z,78.99
2019-04-14T03:23:43.843Z,79.76
2019-04-14T03:38:58.892Z,79.46
2019-04-14T03:43:54.342Z,79.74
2019-04-14T03:49:10.002Z,79.63
2019-04-14T03:54:03.095Z,79.52
2019-04-14T03:58:46.895Z,79.70
2019-04-14T04:03:49.976Z,79.75
2019-04-14T04:08:53.534Z,80.26
2019-04-14T04:13:56.419Z,79.96
2019-04-14T04:19:12.983Z,79.79
2019-04-14T04:24:33.480Z,79.93
2019-04-14T04:29:50.645Z,80.02
2019-04-14T04:35:15.505Z,80.02
2019-04-14T04:40:26.929Z,80.49
2019-04-14T04:45:29.988Z,79.90
2019-04-14T04:50:34.545Z,79.79
2019-04-14T04:55:37.450Z,79.93
2019-04-14T05:00:40.136Z,79.84
2019-04-14T05:06:11.332Z,79.68
2019-04-14T05:11:20.687Z,79.51
2019-04-14T05:16:23.888Z,79.65
2019-04-14T05:21:27.690Z,79.46
2019-04-14T05:26:30.903Z,79.59
2019-04-14T05:31:33.797Z,79.19
2019-04-14T05:36:36.815Z,78.91
2019-04-14T05:41:43.470Z,78.51
2019-04-14T05:46:44.687Z,78.14
2019-04-14T05:51:48.141Z,77.80
2019-04-14T05:56:51.609Z,77.57
2019-04-14T06:01:54.571Z,77.36
2019-04-14T06:06:57.366Z,76.70
2019-04-14T06:12:00.161Z,76.27
2019-04-14T06:17:02.984Z,76.00
2019-04-14T06:22:05.695Z,75.36
2019-04-14T06:27:08.883Z,75.16
2019-04-14T06:32:37.317Z,75.20
2019-04-14T06:37:48.594Z,74.93
2019-04-14T06:42:51.313Z,74.48
2019-04-14T06:47:54.026Z,73.48
2019-04-14T06:52:56.827Z,72.80
2019-04-14T06:57:59.530Z,72.24
2019-04-14T07:03:02.238Z,71.93
2019-04-14T07:08:04.936Z,71.94
2019-04-14T07:13:07.636Z,71.35
2019-04-14T07:18:12.091Z,71.28
2019-04-14T07:23:14.938Z,71.04
2019-04-14T07:28:17.673Z,70.38
2019-04-14T07:33:45.803Z,70.07
2019-04-14T07:38:53.053Z,69.30
2019-04-14T07:44:07.878Z,70.10
2019-04-14T07:49:21.422Z,69.23
2019-04-14T07:54:42.076Z,69.10
2019-04-14T07:59:50.689Z,68.89
2019-04-14T08:05:04.978Z,68.42
2019-04-14T08:10:09.024Z,67.64
2019-04-14T08:15:14.317Z,67.25
2019-04-14T08:20:26.772Z,66.32
2019-04-14T08:25:21.633Z,64.67
2019-04-14T08:30:24.322Z,64.33
2019-04-14T08:35:27.018Z,63.65
2019-04-14T08:40:29.714Z,63.57
2019-04-14T08:45:43.485Z,62.01
2019-04-14T08:51:11.717Z,62.34
2019-04-14T08:56:28.856Z,63.30
2019-04-14T09:02:09.424Z,62.25
2019-04-14T09:07:17.325Z,62.59
2019-04-14T09:12:23.750Z,62.47
2019-04-14T09:17:28.008Z,62.99
2019-04-14T09:22:30.709Z,62.57
2019-04-14T09:27:33.471Z,61.52
2019-04-14T09:32:36.172Z,61.67
2019-04-14T09:37:38.988Z,60.61
2019-04-14T09:42:41.688Z,60.91
2019-04-14T09:47:44.374Z,61.46
2019-04-14T09:52:47.093Z,59.05
2019-04-14T09:57:49.787Z,58.31
2019-04-14T10:02:52.587Z,57.14
2019-04-14T10:07:55.338Z,57.43
2019-04-14T10:12:58.135Z,55.29
2019-04-14T10:18:00.834Z,55.67
2019-04-14T10:23:03.564Z,55.38
2019-04-14T10:28:06.245Z,55.59
2019-04-14T10:33:08.951Z,54.81
2019-04-14T10:38:11.649Z,55.35
2019-04-14T10:43:14.399Z,55.32
2019-04-14T10:48:17.111Z,54.77
2019-04-14T10:53:19.922Z,54.02
2019-04-14T10:58:22.623Z,53.98
2019-04-14T11:03:25.332Z,53.71
2019-04-14T11:08:28.126Z,53.31
2019-04-14T11:13:30.829Z,53.22
2019-04-14T11:18:33.572Z,52.67
2019-04-14T11:23:36.252Z,52.49
2019-04-14T11:28:38.964Z,52.56
2019-04-14T11:34:02.196Z,51.79
2019-04-14T11:39:08.631Z,52.02
2019-04-14T11:44:11.517Z,52.18
2019-04-14T11:49:14.343Z,52.43
2019-04-14T11:54:17.207Z,52.76
2019-04-14T11:59:27.539Z,53.24
2019-04-14T12:04:39.857Z,51.79
2019-04-14T12:09:49.652Z,51.63
2019-04-14T12:14:52.410Z,53.02
2019-04-14T12:19:55.120Z,52.90
2019-04-14T12:30:11.115Z,54.57
2019-04-14T12:35:14.461Z,54.48
2019-04-14T12:40:17.575Z,54.23
2019-04-14T12:45:38.461Z,54.76
2019-04-14T12:50:46.326Z,55.85
2019-04-14T12:55:49.066Z,55.40
2019-04-14T13:00:58.963Z,54.75
2019-04-14T13:06:01.674Z,54.99
2019-04-14T13:11:04.972Z,55.61
2019-04-14T13:16:07.832Z,56.00
2019-04-14T13:21:11.068Z,57.46
2019-04-14T13:26:13.815Z,57.43
2019-04-14T13:31:16.544Z,57.39
2019-04-14T13:36:20.279Z,57.78
2019-04-14T13:41:23.038Z,59.30
2019-04-14T13:46:25.766Z,62.32
2019-04-14T13:51:28.474Z,64.89
2019-04-14T13:56:31.192Z,66.14
2019-04-14T14:01:33.921Z,66.10
2019-04-14T14:06:36.620Z,66.34
2019-04-14T14:11:50.484Z,67.78
2019-04-14T14:17:11.180Z,67.48
2019-04-14T14:22:18.514Z,69.06
2019-04-14T14:27:21.236Z,70.09
2019-04-14T14:32:29.909Z,70.64
2019-04-14T14:37:32.613Z,71.83
2019-04-14T14:42:35.352Z,69.72
2019-04-14T14:47:38.174Z,70.59
2019-04-14T14:52:40.958Z,71.24
2019-04-14T14:57:43.678Z,71.21
2019-04-14T15:02:46.507Z,72.27
2019-04-14T15:07:49.245Z,74.28
2019-04-14T15:12:51.984Z,75.90
2019-04-14T15:17:54.851Z,76.13
2019-04-14T15:22:57.567Z,77.40
2019-04-14T15:28:00.367Z,76.18
2019-04-14T15:33:03.063Z,75.23
2019-04-14T15:38:05.758Z,76.49
2019-04-14T15:43:08.586Z,79.19
2019-04-14T15:48:11.435Z,79.73
2019-04-14T15:53:14.168Z,79.76
2019-04-14T15:58:26.314Z,80.80
2019-04-14T16:03:34.855Z,80.96
2019-04-14T16:08:57.159Z,80.29
2019-04-14T16:14:37.441Z,81.34
2019-04-14T16:19:53.672Z,81.57
2019-04-14T16:24:56.410Z,81.80
2019-04-14T16:30:15.959Z,81.31
2019-04-14T16:35:21.505Z,81.10
2019-04-14T16:40:24.210Z,81.22
2019-04-14T16:45:27.329Z,81.25
2019-04-14T16:50:30.133Z,80.80
2019-04-14T16:55:49.430Z,80.31
2019-04-14T17:00:57.567Z,79.75
2019-04-14T17:06:00.286Z,79.77
2019-04-14T17:11:03.084Z,79.82
2019-04-14T17:16:24.013Z,80.49
2019-04-14T17:21:46.376Z,81.23
2019-04-14T17:26:56.210Z,81.11
2019-04-14T17:32:24.276Z,81.46
2019-04-14T17:37:46.639Z,80.22
2019-04-14T17:43:09.000Z,80.71
2019-04-14T17:48:31.316Z,79.89
2019-04-14T17:53:53.692Z,79.97
2019-04-14T17:59:11.185Z,79.94
2019-04-14T18:04:26.560Z,80.10
2019-04-14T18:09:44.074Z,79.59
2019-04-14T18:14:53.146Z,79.40
2019-04-14T18:20:00.238Z,79.47
2019-04-14T18:25:03.984Z,78.90
2019-04-14T18:30:32.121Z,79.32
2019-04-14T18:36:09.651Z,79.50
2019-04-14T18:41:19.942Z,79.55
2019-04-14T18:46:51.303Z,79.18
2019-04-14T18:52:22.672Z,78.79
2019-04-14T18:57:41.308Z,78.85
2019-04-14T19:02:44.021Z,78.81
2019-04-14T19:07:46.747Z,78.50
2019-04-14T19:12:58.107Z,78.35
2019-04-14T19:18:16.194Z,78.75
2019-04-14T19:23:18.941Z,78.53
2019-04-14T19:28:21.668Z,78.77
2019-04-14T19:33:24.355Z,78.16
2019-04-14T19:38:27.052Z,78.44
2019-04-14T19:43:29.815Z,78.66
2019-04-14T19:48:32.538Z,79.03
2019-04-14T19:53:35.305Z,78.99
2019-04-14T19:58:38.037Z,78.66
2019-04-14T20:03:40.827Z,78.24
2019-04-14T20:08:43.636Z,78.83
2019-04-14T20:13:46.566Z,78.68
2019-04-14T20:19:20.710Z,79.44
2019-04-14T20:24:39.881Z,80.16
2019-04-14T20:29:47.268Z,80.74
2019-04-14T20:34:50.406Z,81.79
2019-04-14T20:39:53.126Z,81.90
2019-04-14T20:44:55.981Z,81.77
2019-04-14T20:49:58.743Z,81.87
2019-04-14T20:55:01.580Z,81.36
2019-04-14T21:00:04.862Z,81.51
2019-04-14T21:05:36.356Z,80.71
2019-04-14T21:11:01.324Z,80.94
2019-04-14T21:16:12.748Z,81.47
2019-04-14T21:21:50.008Z,80.43
2019-04-14T21:27:12.385Z,80.01
2019-04-14T21:32:21.708Z,81.05
2019-04-14T21:37:41.230Z,81.71
2019-04-14T21:42:44.104Z,81.91
2019-04-14T21:47:46.920Z,81.89
2019-04-14T21:52:50.126Z,82.40
2019-04-14T21:58:06.189Z,81.85
2019-04-14T22:03:37.440Z,81.58
2019-04-14T22:08:44.892Z,81.95
2019-04-14T22:13:50.665Z,81.70
2019-04-14T22:18:52.531Z,80.81
2019-04-14T22:24:01.702Z,80.45
2019-04-14T22:29:02.447Z,80.16
2019-04-14T22:34:04.491Z,80.07
2019-04-14T22:39:09.419Z,80.04
2019-04-14T22:44:12.131Z,80.00
2019-04-14T22:49:14.853Z,79.84
2019-04-14T22:54:17.548Z,80.12
2019-04-14T22:59:20.267Z,80.67
2019-04-14T23:04:47.323Z,80.65
2019-04-14T23:16:31.484Z,81.58
2019-04-14T23:21:55.507Z,82.95
2019-04-14T23:26:58.780Z,82.31
2019-04-14T23:32:01.552Z,82.44
2019-04-14T23:37:04.310Z,82.15
2019-04-14T23:42:07.200Z,82.33
2019-04-14T23:47:09.897Z,82.43
2019-04-14T23:52:12.606Z,81.60
2019-04-14T23:57:15.295Z,81.39
